Hlavní strana
METAR-TAF:

METAR-TAF

Letiště :

Kake, Aljaška, Spojené státy americké

zeměpisná šířka: 56-57N, zeměpisná délka: 133-54W, výška: 52 m

Aktuální stav počasí

Zpráva byla vytvořena před 32 minutami, v 06:56 UTC
Východoseverovýchodní vítr 5 kt
Teplota 10°C
Vlhkost vzduchu 93%
Tlak 1019 hPa
Viditelnost: 16.1 km
Jasno

METAR: PAFE 240656Z AUTO 07005KT 10SM CLR 10/09 A3010 RMK AO2 SLP204 T01000094

Čas: 23:28 (07:28 UTC)


TAF: chybějící

Stav a předpovědi počasí z více než 4 000 letišť (zprávy METAR a TAF).

Červené a žluté tečky na mapě představují dostupné meteorologické stanice.

Když kurzor umístíte na tečku, zobrazí se název stanice.

Pak kliknutím zobrazíte stav a předpověď počasí.

Chcete-li změnit mapu, kliknutím na zelené tlačítko se znaménkem +mapu přiblížíte, kliknutím na zelené tlačítko se znaménkem – mapu oddálíte a kliknutím na zelené šipky přejdete na sousední mapy.


METAR-TAF: